Time;durP1;ratioP1;P1;durP2;ratioP2;P2;SDS_P1;SDS_P2;PMS_P1;PMS_P2;Temp;Humidity;BMP_temperature;BMP_pressure;BME280_temperature;BME280_humidity;BME280_pressure;Samples;Min_cycle;Max_cycle;Signal;HPM_P1;HPM_P2
2021/01/03 00:00:22;;;;;;;75.53;44.63;;;2.80;99.90;;;0.31;100.00;100186.06;4907369;28;100271;-67
2021/01/03 00:02:51;;;;;;;80.83;49.13;;;2.70;99.90;;;0.31;100.00;100191.34;4908222;28;99968;-66
2021/01/03 00:05:22;;;;;;;83.17;48.43;;;2.70;99.90;;;0.31;100.00;100177.31;4906949;28;101103;-67
2021/01/03 00:07:49;;;;;;;88.03;48.83;;;2.60;99.90;;;0.32;100.00;100173.75;4908123;28;100024;-67
2021/01/03 00:10:18;;;;;;;82.20;48.63;;;2.70;99.90;;;0.30;100.00;100167.72;4907328;28;99859;-65
2021/01/03 00:12:45;;;;;;;90.57;48.77;;;3.10;99.90;;;0.29;100.00;100166.03;4906954;28;100186;-67
2021/01/03 00:15:16;;;;;;;82.33;46.90;;;2.80;99.90;;;0.28;100.00;100149.41;4906355;28;99936;-68
2021/01/03 00:17:43;;;;;;;93.30;50.33;;;2.70;99.90;;;0.27;100.00;100137.19;4907094;28;100730;-68
2021/01/03 00:20:14;;;;;;;86.90;50.77;;;2.60;99.90;;;0.27;100.00;100149.50;4906780;28;100518;-67
2021/01/03 00:22:41;;;;;;;88.73;50.73;;;2.60;99.90;;;0.27;100.00;100154.75;4906200;28;100031;-66
2021/01/03 00:25:10;;;;;;;95.67;50.97;;;2.70;99.90;;;0.26;100.00;100151.28;4906779;28;101114;-66
2021/01/03 00:27:38;;;;;;;102.33;53.07;;;2.70;99.90;;;0.27;100.00;100152.97;4906849;28;100757;-67
2021/01/03 00:30:09;;;;;;;86.13;47.40;;;2.60;99.90;;;0.27;100.00;100145.09;4907035;28;100077;-66
2021/01/03 00:32:35;;;;;;;97.83;51.23;;;2.50;99.90;;;0.28;100.00;100148.56;4907464;28;100139;-65
2021/01/03 00:35:06;;;;;;;87.67;49.13;;;2.60;99.90;;;0.25;100.00;100154.00;4906742;28;100254;-65
2021/01/03 00:37:33;;;;;;;93.43;51.17;;;2.60;99.90;;;0.27;100.00;100152.97;4906809;28;100732;-65
2021/01/03 00:40:00;;;;;;;92.13;50.17;;;2.60;99.90;;;0.24;100.00;100145.31;4906477;28;100213;-67
2021/01/03 00:42:27;;;;;;;94.33;51.70;;;2.70;99.90;;;0.26;100.00;100134.66;4907492;28;99923;-67
2021/01/03 00:44:54;;;;;;;104.43;53.47;;;2.70;99.90;;;0.25;100.00;100131.16;4906144;28;101736;-65
2021/01/03 00:47:21;;;;;;;98.00;52.67;;;2.70;99.90;;;0.21;100.00;100111.28;4906670;28;100982;-67
2021/01/03 00:49:48;;;;;;;103.47;53.33;;;2.60;99.90;;;0.22;100.00;100112.13;4906689;28;100123;-67
2021/01/03 00:52:15;;;;;;;100.50;53.73;;;2.50;99.90;;;0.23;100.00;100112.03;4906811;28;100220;-67
2021/01/03 00:54:42;;;;;;;102.40;53.43;;;2.60;99.90;;;0.23;100.00;100111.19;4906228;28;101924;-67
2021/01/03 00:57:08;;;;;;;106.60;52.83;;;2.70;99.90;;;0.23;100.00;100121.72;4906696;28;101281;-67
2021/01/03 00:59:35;;;;;;;99.57;49.43;;;2.50;99.90;;;0.19;100.00;100125.47;4906578;28;100140;-66
2021/01/03 01:02:02;;;;;;;112.03;55.53;;;3.20;99.90;;;0.21;100.00;100120.97;4906807;28;100147;-67
2021/01/03 01:04:29;;;;;;;106.37;54.23;;;2.70;99.90;;;0.21;100.00;100131.47;4906279;28;100984;-67
2021/01/03 01:06:56;;;;;;;104.73;52.70;;;2.60;99.90;;;0.20;100.00;100135.06;4906130;28;100412;-67
2021/01/03 01:09:23;;;;;;;105.23;53.77;;;2.60;99.90;;;0.21;100.00;100123.59;4906722;28;100255;-68
2021/01/03 01:11:53;;;;;;;101.33;52.67;;;1.60;99.90;;;0.20;100.00;100122.75;4906177;28;99969;-67
2021/01/03 01:14:20;;;;;;;109.10;55.80;;;2.60;99.90;;;0.17;100.00;100120.28;4906768;28;100808;-66
2021/01/03 01:16:47;;;;;;;105.27;52.33;;;2.60;99.90;;;0.16;100.00;100126.50;4906450;28;100552;-66
2021/01/03 01:19:16;;;;;;;114.10;54.30;;;3.10;99.90;;;0.17;100.00;100116.81;4913609;28;100093;-66
2021/01/03 01:21:43;;;;;;;100.73;53.80;;;2.60;99.90;;;0.16;100.00;100118.59;4906695;28;100057;-67
2021/01/03 01:24:10;;;;;;;108.43;54.00;;;2.50;99.90;;;0.13;100.00;100110.91;4906387;28;101379;-67
2021/01/03 01:26:37;;;;;;;101.63;51.83;;;2.60;99.90;;;0.11;100.00;100117.22;4905690;28;100730;-67
2021/01/03 01:29:04;;;;;;;116.57;56.33;;;2.60;99.90;;;0.12;100.00;100121.53;4905645;28;100148;-66
2021/01/03 01:31:31;;;;;;;100.50;53.40;;;2.50;99.90;;;0.10;100.00;100120.78;4906106;28;100204;-68
2021/01/03 01:33:58;;;;;;;108.73;53.13;;;2.50;99.90;;;0.08;100.00;100106.88;4905777;28;101706;-67
2021/01/03 01:36:26;;;;;;;99.47;49.23;;;1.50;99.90;;;0.07;100.00;100092.88;4905345;28;100423;-66
2021/01/03 01:38:52;;;;;;;110.40;52.33;;;2.50;99.90;;;0.11;100.00;100104.06;4905497;28;100141;-67
2021/01/03 01:41:19;;;;;;;106.63;52.90;;;2.50;99.90;;;0.07;100.00;100102.56;4906417;28;100399;-66
2021/01/03 01:43:46;;;;;;;100.10;44.63;;;2.50;99.90;;;0.06;100.00;100103.50;4904885;28;100673;-66
2021/01/03 01:46:24;;;;;;;108.33;52.60;;;2.40;99.90;;;0.07;100.00;100105.19;4905317;28;100977;-67
2021/01/03 01:48:51;;;;;;;105.80;53.03;;;2.30;99.90;;;0.06;100.00;100104.34;4905754;28;100301;-67
2021/01/03 01:51:22;;;;;;;110.77;49.40;;;2.50;99.90;;;0.02;100.00;100104.63;4906012;28;100029;-67
2021/01/03 01:53:59;;;;;;;106.33;50.47;;;2.40;99.90;;;-0.01;100.00;100096.00;4905500;28;100270;-65
2021/01/03 01:56:33;;;;;;;101.73;50.37;;;2.50;99.90;;;0.03;100.00;100096.63;4886789;28;101171;-67
2021/01/03 01:59:06;;;;;;;104.40;50.37;;;2.30;99.90;;;0.02;100.00;100094.09;4905697;28;100007;-66
2021/01/03 02:01:40;;;;;;;106.87;51.30;;;2.30;99.90;;;-0.03;100.00;100092.63;4906018;28;100221;-65
2021/01/03 02:04:17;;;;;;;103.90;50.20;;;3.20;99.90;;;-0.01;100.00;100097.78;4905298;28;100508;-66
2021/01/03 02:06:51;;;;;;;109.50;51.33;;;2.40;99.90;;;-0.03;100.00;100095.25;4904790;28;101422;-68
2021/01/03 02:09:26;;;;;;;113.63;51.93;;;2.40;99.90;;;-0.06;100.00;100100.69;4906027;28;100321;-66
2021/01/03 02:12:09;;;;;;;101.23;48.37;;;2.20;99.90;;;-0.08;100.00;100086.78;4905302;28;100496;-66
2021/01/03 02:14:36;;;;;;;111.10;49.93;;;2.40;99.90;;;-0.08;100.00;100080.69;4905630;28;101305;-66
2021/01/03 02:17:03;;;;;;;105.30;51.50;;;2.30;99.90;;;-0.10;100.00;100078.16;4905614;28;100130;-66
2021/01/03 02:19:33;;;;;;;102.70;49.27;;;2.90;99.90;;;-0.09;100.00;100069.31;4905254;28;100321;-66
2021/01/03 02:22:06;;;;;;;93.00;48.43;;;2.20;99.90;;;-0.12;100.00;100068.66;4905795;28;100104;-67
2021/01/03 02:24:43;;;;;;;103.00;46.83;;;2.20;99.90;;;-0.11;100.00;100060.66;4905066;28;100100;-66
2021/01/03 02:27:17;;;;;;;100.70;49.10;;;2.20;99.90;;;-0.12;100.00;100072.13;4905753;28;100634;-65
2021/01/03 02:29:45;;;;;;;98.40;48.27;;;2.30;99.90;;;-0.17;100.00;100065.47;4905464;28;100136;-65
2021/01/03 02:32:13;;;;;;;91.30;44.90;;;2.10;99.90;;;-0.24;100.00;100058.91;4905777;28;100164;-64
2021/01/03 02:34:46;;;;;;;103.90;49.73;;;2.20;99.90;;;-0.29;100.00;100050.47;4904912;28;100941;-65
2021/01/03 02:37:19;;;;;;;98.23;49.10;;;2.20;99.90;;;-0.32;100.00;100050.66;4905384;28;100444;-64
2021/01/03 02:39:56;;;;;;;97.73;46.63;;;3.10;99.90;;;-0.37;100.00;100057.03;4910301;28;100183;-66
2021/01/03 02:42:28;;;;;;;96.63;47.13;;;2.10;99.90;;;-0.38;100.00;100058.00;4912868;28;100372;-65
2021/01/03 02:44:55;;;;;;;107.30;50.07;;;2.00;99.90;;;-0.39;100.00;100048.41;4906872;28;101738;-66
2021/01/03 02:47:26;;;;;;;102.90;49.27;;;2.30;99.90;;;-0.41;100.00;100044.19;4907615;28;101404;-66
2021/01/03 02:49:53;;;;;;;99.57;49.70;;;2.10;99.90;;;-0.42;100.00;100045.13;4908512;28;100254;-65
2021/01/03 02:52:26;;;;;;;92.40;44.57;;;2.00;99.90;;;-0.46;100.00;100036.56;4909305;28;100231;-65
2021/01/03 02:54:53;;;;;;;94.30;44.67;;;2.00;99.90;;;-0.52;100.00;100033.50;4908199;28;100773;-67
2021/01/03 02:57:19;;;;;;;92.20;46.80;;;1.80;99.90;;;-0.57;100.00;100038.19;4908123;28;100307;-68
2021/01/03 02:59:46;;;;;;;99.30;47.77;;;1.90;99.90;;;-0.62;100.00;100049.00;4907541;28;101234;-69
2021/01/03 03:02:13;;;;;;;85.70;45.10;;;2.60;99.90;;;-0.67;100.00;100037.06;4909162;28;100443;-69
2021/01/03 03:04:41;;;;;;;86.77;43.57;;;1.70;99.90;;;-0.70;100.00;100026.72;4908282;28;100072;-68
2021/01/03 03:07:17;;;;;;;89.50;43.93;;;1.70;99.90;;;-0.77;100.00;100027.13;4908345;28;100314;-69
2021/01/03 03:09:44;;;;;;;89.30;44.27;;;1.80;99.90;;;-0.81;100.00;100024.75;4907518;28;100167;-69
2021/01/03 03:12:10;;;;;;;87.87;44.47;;;1.50;99.90;;;-0.83;100.00;100021.38;4910469;28;100416;-70
2021/01/03 03:14:37;;;;;;;90.67;43.27;;;1.50;99.90;;;-0.90;100.00;100018.28;4927091;28;101028;-69
2021/01/03 03:17:07;;;;;;;87.77;44.50;;;1.40;99.90;;;-0.92;100.00;100020.16;4927644;28;100797;-71
2021/01/03 03:19:35;;;;;;;86.53;43.43;;;1.50;99.90;;;-0.92;100.00;100019.31;4927676;28;100008;-71
2021/01/03 03:22:02;;;;;;;83.33;42.97;;;1.40;99.90;;;-0.95;100.00;100014.22;4927041;28;100317;-71
2021/01/03 03:24:30;;;;;;;83.57;42.47;;;2.20;99.90;;;-0.99;100.00;100010.13;4927349;28;100850;-70
2021/01/03 03:26:59;;;;;;;84.73;43.37;;;1.30;99.90;;;-1.01;100.00;100002.31;4927707;28;100003;-69
2021/01/03 03:29:27;;;;;;;84.87;40.83;;;1.30;99.90;;;-1.01;100.00;100007.56;4928032;28;100258;-70
2021/01/03 03:31:55;;;;;;;87.43;41.30;;;1.30;99.90;;;-1.02;100.00;99995.38;4927423;28;100253;-69
2021/01/03 03:34:25;;;;;;;78.27;39.80;;;2.50;99.90;;;-1.04;100.00;100009.53;4926590;28;100911;-69
2021/01/03 03:36:52;;;;;;;81.90;39.93;;;1.30;99.90;;;-1.06;100.00;100004.38;4926804;28;100654;-69
2021/01/03 03:39:19;;;;;;;72.73;37.20;;;1.20;99.90;;;-1.04;100.00;100010.38;4927240;28;100394;-69
2021/01/03 03:41:46;;;;;;;72.47;38.83;;;1.10;99.90;;;-1.10;100.00;100001.06;4926905;28;100251;-69
2021/01/03 03:44:13;;;;;;;71.13;36.50;;;1.70;99.90;;;-1.11;100.00;100004.63;4926472;28;101444;-70
2021/01/03 03:46:42;;;;;;;74.17;36.47;;;1.70;99.90;;;-1.09;100.00;100001.91;4926745;28;101302;-71
2021/01/03 03:49:08;;;;;;;72.63;33.67;;;1.10;99.90;;;-1.11;100.00;100002.00;4926887;28;99972;-73
2021/01/03 03:51:37;;;;;;;66.33;35.60;;;2.00;99.90;;;-1.11;100.00;99999.38;4927752;28;100071;-73
2021/01/03 03:54:05;;;;;;;77.00;35.23;;;1.00;99.90;;;-1.10;100.00;100001.06;4927060;28;99936;-74
2021/01/03 03:56:31;;;;;;;72.87;36.70;;;1.10;99.90;;;-1.14;100.00;99991.72;4926799;28;100757;-77
2021/01/03 03:58:58;;;;;;;68.83;34.60;;;1.20;99.90;;;-1.12;100.00;99989.00;4927060;28;100110;-76
2021/01/03 04:01:25;;;;;;;68.27;33.43;;;1.10;99.90;;;-1.13;100.00;99982.06;4926847;28;100028;-75
2021/01/03 04:03:51;;;;;;;74.63;35.77;;;1.10;99.90;;;-1.12;100.00;99986.38;4927440;28;100599;-74
2021/01/03 04:06:26;;;;;;;71.13;35.13;;;1.10;99.90;;;-1.13;100.00;99982.06;4927109;28;101660;-75
2021/01/03 04:08:54;;;;;;;65.70;32.87;;;1.10;99.90;;;-1.11;100.00;99985.41;4928051;28;99863;-75
2021/01/03 04:11:21;;;;;;;67.27;32.77;;;1.10;99.90;;;-1.12;100.00;99976.72;4926792;28;100508;-72
2021/01/03 04:13:48;;;;;;;67.30;34.20;;;0.90;99.90;;;-1.12;100.00;99974.09;4926234;28;100823;-72
2021/01/03 04:16:15;;;;;;;60.13;31.90;;;1.00;99.90;;;-1.11;100.00;99974.91;4925026;28;101805;-72
2021/01/03 04:18:42;;;;;;;59.37;31.53;;;1.00;99.90;;;-1.11;100.00;99978.38;4925320;28;100297;-71
2021/01/03 04:21:11;;;;;;;61.33;31.63;;;1.10;99.90;;;-1.12;100.00;99971.47;4926955;28;99947;-71
2021/01/03 04:23:38;;;;;;;59.87;29.80;;;1.00;99.90;;;-1.13;100.00;99969.78;4925595;28;101726;-72
2021/01/03 04:26:06;;;;;;;61.00;31.47;;;1.00;99.90;;;-1.11;100.00;99967.88;4926557;28;100674;-72
2021/01/03 04:28:33;;;;;;;53.77;28.10;;;1.10;99.90;;;-1.12;100.00;99968.84;4927388;28;99953;-73
2021/01/03 04:31:00;;;;;;;52.87;28.67;;;1.10;99.90;;;-1.12;100.00;99968.00;4926301;28;100612;-74
2021/01/03 04:33:27;;;;;;;54.20;27.00;;;0.10;99.90;;;-1.12;100.00;99968.00;4908588;28;103332;-74
2021/01/03 04:35:54;;;;;;;48.70;26.50;;;1.00;99.90;;;-1.11;100.00;99970.50;4926548;28;100221;-75
2021/01/03 04:38:20;;;;;;;47.27;25.83;;;0.90;99.90;;;-1.13;100.00;99967.16;4927789;28;100323;-75
2021/01/03 04:40:48;;;;;;;47.73;26.30;;;1.00;99.90;;;-1.15;100.00;99968.16;4926334;28;100248;-76
2021/01/03 04:43:20;;;;;;;49.47;25.77;;;1.10;99.90;;;-1.15;100.00;99966.38;4926415;28;100692;-75
2021/01/03 04:45:48;;;;;;;45.33;26.13;;;1.00;99.90;;;-1.12;100.00;99960.97;4926861;28;100557;-76
2021/01/03 04:48:23;;;;;;;42.43;23.93;;;1.00;99.90;;;-1.12;100.00;99968.84;4925707;28;99970;-76
2021/01/03 04:51:15;;;;;;;41.43;24.10;;;0.90;99.90;;;-1.14;100.00;99969.88;4926158;28;99989;-76
2021/01/03 04:53:49;;;;;;;39.83;22.63;;;1.80;99.90;;;-1.13;100.00;99961.91;4926087;28;100902;-73
2021/01/03 04:56:23;;;;;;;35.80;22.50;;;0.90;99.90;;;-1.14;100.00;99959.38;4926479;28;101104;-71
2021/01/03 04:59:04;;;;;;;39.43;22.53;;;1.00;99.90;;;-1.14;100.00;99970.72;4926245;28;99974;-70
2021/01/03 05:02:23;;;;;;;34.70;20.90;;;1.10;99.90;;;-1.14;100.00;99972.50;4925440;28;99977;-72
2021/01/03 05:05:09;;;;;;;30.57;18.70;;;0.80;99.90;;;-1.17;100.00;99964.78;4920416;28;101433;-71
2021/01/03 05:07:40;;;;;;;37.47;21.93;;;0.90;99.90;;;-1.15;100.00;99968.16;4926531;28;100426;-72
2021/01/03 05:10:16;;;;;;;30.43;18.57;;;1.00;99.90;;;-1.14;100.00;99962.84;4926088;28;99982;-72
2021/01/03 05:12:58;;;;;;;30.83;20.17;;;1.00;99.90;;;-1.13;100.00;99966.31;4926375;28;99908;-72
2021/01/03 05:15:31;;;;;;;34.70;20.23;;;0.90;99.90;;;-1.15;100.00;99958.50;4925212;28;100018;-72
2021/01/03 05:17:59;;;;;;;33.00;18.87;;;1.10;99.90;;;-1.14;100.00;99961.97;4926479;28;100428;-73
2021/01/03 05:20:25;;;;;;;32.57;20.20;;;1.00;99.90;;;-1.14;100.00;99961.97;4926110;28;100067;-74
2021/01/03 05:22:52;;;;;;;36.03;21.17;;;1.70;99.90;;;-1.16;100.00;99971.72;4925987;28;100240;-75
2021/01/03 05:25:39;;;;;;;38.37;20.30;;;1.10;99.90;;;-1.15;100.00;99971.63;4925409;28;101237;-75
2021/01/03 05:28:14;;;;;;;28.17;18.10;;;1.10;99.90;;;-1.14;100.00;99975.97;4925923;28;101257;-74
2021/01/03 05:30:42;;;;;;;33.90;19.67;;;0.90;99.90;;;-1.15;100.00;99976.03;4925478;28;100032;-76
2021/01/03 05:33:12;;;;;;;28.50;18.03;;;1.00;99.90;;;-1.16;100.00;99969.09;4925814;28;100344;-75
2021/01/03 05:35:43;;;;;;;29.17;18.37;;;1.00;99.90;;;-1.15;100.00;99976.91;4925717;28;100808;-75
2021/01/03 05:38:13;;;;;;;31.67;18.50;;;1.00;99.90;;;-1.16;100.00;99980.44;4925673;28;99825;-75
2021/01/03 05:40:42;;;;;;;26.40;17.83;;;0.90;99.90;;;-1.14;100.00;99973.34;4906943;28;100084;-75
2021/01/03 05:43:21;;;;;;;27.87;17.90;;;1.00;99.90;;;-1.15;100.00;99970.78;4926080;28;99925;-75
2021/01/03 05:46:05;;;;;;;27.47;17.10;;;1.10;99.90;;;-1.15;100.00;99966.38;4906758;28;100338;-75
2021/01/03 05:48:40;;;;;;;26.67;17.03;;;1.10;99.90;;;-1.15;100.00;99962.91;4925933;28;101634;-75
2021/01/03 05:51:26;;;;;;;31.13;18.60;;;1.10;99.90;;;-1.14;100.00;99968.09;4926681;28;100400;-75
2021/01/03 05:54:02;;;;;;;28.93;19.70;;;1.00;99.90;;;-1.16;100.00;99966.47;4908230;28;100283;-75
2021/01/03 05:56:43;;;;;;;27.00;17.60;;;1.00;99.90;;;-1.15;100.00;99961.13;4924702;28;102026;-76
2021/01/03 05:59:29;;;;;;;22.93;15.73;;;1.60;99.90;;;-1.14;100.00;99972.50;4919381;28;130391;-76
2021/01/03 06:03:03;;;;;;;27.43;16.83;;;0.90;99.90;;;-1.13;100.00;99964.53;4925826;28;99886;-75
2021/01/03 06:05:32;;;;;;;22.17;15.40;;;1.10;99.90;;;-1.14;100.00;99961.97;4856161;28;100507;-75
2021/01/03 06:09:04;;;;;;;;;;;;;;;;;;;;;
2021/01/03 06:11:33;;;;;;;25.67;14.87;;;1.00;99.90;;;-1.13;100.00;99963.69;4855759;28;100555;-75
2021/01/03 06:14:01;;;;;;;25.87;15.70;;;0.90;99.90;;;-1.14;100.00;99969.88;4864311;28;100469;-75
2021/01/03 06:16:30;;;;;;;24.27;15.33;;;0.80;99.90;;;-1.14;100.00;99961.97;4888383;28;100179;-74
2021/01/03 06:19:04;;;;;;;22.63;15.10;;;0.90;99.90;;;-1.13;100.00;99968.94;4933504;28;101034;-75
2021/01/03 06:21:37;;;;;;;19.80;12.67;;;1.10;99.90;;;-1.13;100.00;99966.31;4921313;28;100589;-75
2021/01/03 06:24:18;;;;;;;23.10;14.37;;;0.80;99.90;;;-1.15;100.00;99963.75;4909941;28;99964;-76
2021/01/03 06:26:51;;;;;;;23.83;14.40;;;1.00;99.90;;;-1.13;100.00;99959.28;4918563;28;100233;-76
2021/01/03 06:29:32;;;;;;;32.00;15.60;;;1.00;99.90;;;-1.13;100.00;99954.03;4943477;28;100068;-76
2021/01/03 06:33:08;;;;;;;24.90;13.13;;;1.10;99.90;;;-1.13;100.00;99955.81;4938130;28;101504;-76
2021/01/03 06:39:39;;;;;;;21.63;13.13;;;0.90;99.90;;;-1.13;100.00;99951.41;4809814;29;100421;-75
2021/01/03 06:42:30;;;;;;;20.67;14.57;;;1.20;99.90;;;-1.12;100.00;99949.63;4826852;28;101062;-75
2021/01/03 06:45:32;;;;;;;22.90;13.43;;;1.10;99.90;;;-1.12;100.00;99941.75;4829419;28;101539;-76
2021/01/03 06:48:59;;;;;;;20.67;12.57;;;1.80;99.90;;;-1.12;100.00;99945.22;4909836;28;100075;-75
2021/01/03 06:51:54;;;;;;;17.60;12.53;;;1.00;99.90;;;-1.10;100.00;99937.22;4903734;28;100159;-75
2021/01/03 06:55:02;;;;;;;19.60;13.00;;;0.80;99.90;;;-1.10;100.00;99939.84;4912494;28;101349;-74
2021/01/03 06:58:15;;;;;;;20.73;12.63;;;0.90;99.90;;;-1.10;100.00;99940.69;4909492;28;101144;-74
2021/01/03 07:00:45;;;;;;;19.10;11.67;;;0.90;99.90;;;-1.11;100.00;99931.13;4897307;28;100588;-74
2021/01/03 07:03:19;;;;;;;20.47;12.37;;;1.00;99.90;;;-1.08;100.00;99941.44;4922591;28;99965;-73
2021/01/03 07:05:56;;;;;;;19.67;12.70;;;1.00;99.90;;;-1.07;100.00;99934.41;4907550;28;101393;-71
2021/01/03 07:08:26;;;;;;;19.03;13.07;;;0.80;99.90;;;-1.06;100.00;99941.34;4910236;28;101159;-70
2021/01/03 07:10:55;;;;;;;20.20;12.73;;;1.00;99.90;;;-1.06;100.00;99940.50;4927316;28;100191;-71
2021/01/03 07:13:42;;;;;;;18.00;12.73;;;2.10;99.90;;;-1.03;100.00;99950.84;4923153;28;100015;-68
2021/01/03 07:16:55;;;;;;;19.97;12.87;;;1.70;99.90;;;-1.05;100.00;99955.31;4922474;28;100828;-66
2021/01/03 07:19:39;;;;;;;20.57;13.30;;;1.10;99.90;;;-1.08;100.00;99949.31;4914394;28;100469;-69
2021/01/03 07:22:13;;;;;;;19.10;13.13;;;1.00;99.90;;;-1.06;100.00;99956.25;4908351;28;100020;-69
2021/01/03 07:25:12;;;;;;;19.20;12.00;;;1.00;99.90;;;-1.04;100.00;99941.25;4925173;28;100116;-70
2021/01/03 07:27:40;;;;;;;18.60;13.03;;;1.00;99.90;;;-1.04;100.00;99951.75;4947431;28;101302;-69
2021/01/03 07:30:39;;;;;;;17.73;12.37;;;1.10;99.90;;;-1.05;100.00;99947.44;4947897;28;100772;-70
2021/01/03 07:33:48;;;;;;;18.93;14.13;;;1.10;99.90;;;-1.03;100.00;99942.94;4931918;28;101105;-69
2021/01/03 07:36:25;;;;;;;21.90;13.00;;;1.00;99.90;;;-1.04;100.00;99949.13;4898031;28;100189;-67
2021/01/03 07:39:14;;;;;;;19.70;13.17;;;1.10;99.90;;;-1.06;100.00;99941.34;4924566;28;100754;-68
2021/01/03 07:41:44;;;;;;;19.63;12.97;;;2.30;99.90;;;-1.06;100.00;99949.22;4925196;28;100818;-70
2021/01/03 07:44:14;;;;;;;17.70;12.80;;;1.10;99.90;;;-1.04;100.00;99938.63;4926482;28;100022;-69
2021/01/03 07:46:54;;;;;;;18.23;12.50;;;1.00;99.90;;;-1.05;100.00;99952.69;4926138;28;100078;-69
2021/01/03 07:49:42;;;;;;;17.53;12.23;;;1.10;99.90;;;-1.04;100.00;99955.25;4926037;28;100086;-70
2021/01/03 07:52:41;;;;;;;19.90;12.30;;;1.00;99.90;;;-1.04;100.00;99941.25;4914706;28;100566;-70
2021/01/03 07:55:33;;;;;;;21.10;12.13;;;1.30;99.90;;;-1.03;100.00;99953.47;4900266;28;100103;-71
2021/01/03 07:58:05;;;;;;;17.00;11.97;;;1.00;99.90;;;-1.03;100.00;99954.31;4915252;28;100335;-70
2021/01/03 08:00:36;;;;;;;18.67;12.83;;;1.50;99.90;;;-1.03;100.00;99956.09;4925307;28;101719;-71
2021/01/03 08:03:07;;;;;;;18.07;11.57;;;1.10;99.90;;;-1.06;100.00;99949.22;4925277;28;100203;-72
2021/01/03 08:05:35;;;;;;;17.53;12.23;;;1.00;99.90;;;-1.06;100.00;99951.84;4905421;28;100158;-71
2021/01/03 08:08:07;;;;;;;16.67;11.93;;;1.10;99.90;;;-1.06;100.00;99954.47;4891135;28;100593;-70
2021/01/03 08:10:39;;;;;;;17.47;11.77;;;1.10;99.90;;;-1.08;100.00;99951.94;4909033;28;101661;-72
2021/01/03 08:13:13;;;;;;;17.57;11.63;;;1.10;99.90;;;-1.10;100.00;99951.19;4916857;28;100688;-71
2021/01/03 08:15:40;;;;;;;16.83;12.27;;;1.10;99.90;;;-1.09;100.00;99954.66;4924732;28;100607;-70
2021/01/03 08:18:14;;;;;;;20.17;12.67;;;0.90;99.90;;;-1.10;100.00;99956.44;4927539;28;100392;-70
2021/01/03 08:20:41;;;;;;;19.07;11.63;;;1.20;99.90;;;-1.09;100.00;99955.50;4928901;28;101589;-70
2021/01/03 08:23:25;;;;;;;19.60;11.80;;;1.00;99.90;;;-1.08;100.00;99959.81;4924830;28;100154;-71
2021/01/03 08:26:05;;;;;;;18.60;11.90;;;1.00;99.90;;;-1.07;100.00;99958.03;4917366;28;100731;-71
2021/01/03 08:28:37;;;;;;;16.73;11.70;;;0.30;99.90;;;-1.06;100.00;99964.13;4906418;28;100088;-72
2021/01/03 08:31:05;;;;;;;16.33;11.47;;;1.10;99.90;;;-1.08;100.00;99961.59;4906132;28;101843;-73
2021/01/03 08:33:39;;;;;;;19.27;12.73;;;0.90;99.90;;;-1.07;100.00;99960.66;4919525;28;100596;-72
2021/01/03 08:36:23;;;;;;;19.30;12.77;;;1.00;99.90;;;-1.06;100.00;99964.13;4925360;28;100268;-73
2021/01/03 08:38:50;;;;;;;15.23;12.17;;;1.20;99.90;;;-1.05;100.00;99973.72;4924005;28;100068;-72
2021/01/03 08:41:22;;;;;;;18.27;11.80;;;1.10;99.90;;;-1.05;100.00;99971.94;4925058;28;100953;-74
2021/01/03 08:43:50;;;;;;;19.03;13.30;;;1.10;99.90;;;-1.05;100.00;99966.69;4923804;28;100644;-71
2021/01/03 08:46:33;;;;;;;20.73;14.80;;;1.20;99.90;;;-1.02;100.00;99963.03;4926857;28;100290;-73
2021/01/03 08:49:05;;;;;;;23.40;16.53;;;1.20;99.90;;;-1.02;100.00;99969.13;4925596;28;99917;-73
2021/01/03 08:51:32;;;;;;;21.00;14.33;;;1.10;99.90;;;-1.03;100.00;99967.44;4914720;28;100119;-74
2021/01/03 08:54:00;;;;;;;21.70;16.50;;;2.10;99.90;;;-1.01;100.00;99965.56;4908255;28;100954;-75
2021/01/03 08:56:35;;;;;;;21.33;15.67;;;1.20;99.90;;;-1.00;100.00;99969.88;4904904;28;99953;-76
2021/01/03 08:59:04;;;;;;;20.83;14.80;;;1.20;99.90;;;-1.00;100.00;99977.75;4904778;28;100194;-73
2021/01/03 09:01:33;;;;;;;20.93;14.60;;;1.70;99.90;;;-1.00;100.00;99971.66;4915238;28;100890;-76
2021/01/03 09:04:04;;;;;;;17.63;13.37;;;1.10;99.90;;;-0.99;100.00;99975.97;4911167;28;100622;-75
2021/01/03 09:06:32;;;;;;;17.17;12.50;;;1.20;99.90;;;-0.99;100.00;99975.97;4903309;28;100271;-78
2021/01/03 09:09:10;;;;;;;18.17;12.77;;;1.10;99.90;;;-0.99;100.00;99981.22;4921491;28;100291;-77
2021/01/03 09:11:45;;;;;;;19.90;13.00;;;1.30;99.90;;;-0.97;100.00;99981.94;4907764;28;100213;-76
2021/01/03 09:14:25;;;;;;;17.53;13.33;;;1.20;99.90;;;-0.95;100.00;99980.09;4885300;28;100168;-76
2021/01/03 09:16:56;;;;;;;18.37;12.17;;;1.20;99.90;;;-0.96;100.00;99981.03;4890198;28;100244;-77
2021/01/03 09:19:28;;;;;;;19.60;13.27;;;1.20;99.90;;;-0.96;100.00;99981.03;4921496;28;100087;-77
2021/01/03 09:22:14;;;;;;;21.80;16.73;;;1.40;99.90;;;-0.95;100.00;99977.47;4904220;28;106299;-77
2021/01/03 09:24:41;;;;;;;35.43;31.40;;;1.20;99.90;;;-0.95;100.00;99975.69;4927321;28;108326;-76
2021/01/03 09:27:10;;;;;;;25.03;21.00;;;1.20;99.90;;;-0.95;100.00;99986.19;4953110;28;100341;-76
2021/01/03 09:29:41;;;;;;;17.43;14.00;;;1.40;99.90;;;-0.94;100.00;99981.78;4882680;28;100680;-78
2021/01/03 09:32:29;;;;;;;17.49;12.82;;;2.40;99.90;;;-0.93;100.00;99988.72;4462557;28;10001526;-76
2021/01/03 09:35:13;;;;;;;17.90;13.50;;;1.30;99.90;;;-0.93;100.00;99992.19;4920723;28;106790;-77
2021/01/03 09:37:41;;;;;;;19.60;13.37;;;1.20;99.90;;;-0.93;100.00;99980.84;4903299;28;100758;-75
2021/01/03 09:40:33;;;;;;;20.27;13.70;;;1.30;99.90;;;-0.92;100.00;99988.63;4922125;28;99991;-75
2021/01/03 09:43:12;;;;;;;18.03;13.67;;;1.50;99.90;;;-0.93;100.00;99981.69;4921117;28;100043;-74
2021/01/03 09:46:04;;;;;;;28.17;18.63;;;1.30;99.90;;;-0.92;100.00;99978.13;4922536;28;100584;-76
2021/01/03 09:48:34;;;;;;;19.70;14.17;;;1.30;99.90;;;-0.92;100.00;99978.13;4922176;28;100125;-77
2021/01/03 09:51:09;;;;;;;18.30;13.53;;;1.30;99.90;;;-0.91;100.00;99977.19;4920748;28;100277;-79
2021/01/03 09:53:40;;;;;;;20.27;14.17;;;1.90;99.90;;;-0.90;100.00;99983.28;4939458;28;100737;-77
2021/01/03 09:56:23;;;;;;;17.77;13.27;;;1.40;99.90;;;-0.92;100.00;99986.00;4941845;28;101431;-79
2021/01/03 09:58:52;;;;;;;17.07;13.20;;;1.70;99.90;;;-0.90;100.00;99976.25;4943691;28;100101;-78
2021/01/03 10:01:31;;;;;;;18.53;13.70;;;1.40;99.90;;;-0.90;100.00;99983.28;4944113;28;100488;-77
2021/01/03 10:04:18;;;;;;;17.00;12.93;;;2.40;99.90;;;-0.89;100.00;99982.34;4936489;28;100012;-78
2021/01/03 10:06:48;;;;;;;15.83;12.10;;;2.30;99.90;;;-0.87;100.00;99977.84;4943668;28;101907;-79
2021/01/03 10:09:32;;;;;;;18.03;13.10;;;1.50;99.90;;;-0.86;100.00;99975.13;4946910;28;100133;-79
2021/01/03 10:11:59;;;;;;;17.27;14.37;;;1.50;99.90;;;-0.87;100.00;99981.34;4925729;28;100435;-77
2021/01/03 10:14:33;;;;;;;20.00;14.50;;;1.40;99.90;;;-0.85;100.00;99971.56;4944533;28;101695;-76
2021/01/03 10:17:15;;;;;;;20.93;15.63;;;1.40;99.90;;;-0.83;100.00;99968.84;4945561;28;102571;-76
2021/01/03 10:19:42;;;;;;;27.27;19.57;;;1.40;99.90;;;-0.85;100.00;99971.56;4945355;28;100266;-75
2021/01/03 10:22:30;;;;;;;34.90;26.93;;;1.60;99.90;;;-0.82;100.00;99958.25;4946665;28;100092;-75
2021/01/03 10:25:00;;;;;;;29.77;20.87;;;1.40;99.90;;;-0.79;100.00;99968.56;4934662;28;100129;-76
2021/01/03 10:27:28;;;;;;;21.27;15.90;;;1.40;99.90;;;-0.78;100.00;99964.16;4928926;28;100518;-76
2021/01/03 10:29:55;;;;;;;24.63;18.80;;;2.50;99.90;;;-0.79;100.00;99960.69;4929724;28;100044;-76
2021/01/03 10:32:23;;;;;;;19.70;14.77;;;1.50;99.90;;;-0.77;100.00;99960.59;4941577;28;100199;-77